Time;durP1;ratioP1;P1;durP2;ratioP2;P2;SDS_P1;SDS_P2;PMS_P1;PMS_P2;Temp;Humidity;BMP_temperature;BMP_pressure;BME280_temperature;BME280_humidity;BME280_pressure;Samples;Min_cycle;Max_cycle;Signal;HPM_P1;HPM_P2
2021/12/06 00:00:46;;;;;;;15.07;12.87;;;1.30;99.90;;;;;;4988095;28;20669;-74
2021/12/06 00:03:17;;;;;;;14.97;12.67;;;1.40;99.90;;;;;;4984998;28;20676;-74
2021/12/06 00:05:43;;;;;;;15.77;13.40;;;1.40;99.90;;;;;;4987149;28;20594;-75
2021/12/06 00:08:09;;;;;;;17.10;13.67;;;1.40;99.90;;;;;;4985239;28;20205;-74
2021/12/06 00:10:35;;;;;;;18.03;14.33;;;1.50;99.90;;;;;;4988000;28;20186;-74
2021/12/06 00:13:01;;;;;;;15.60;13.47;;;1.40;99.90;;;;;;4982480;28;20241;-74
2021/12/06 00:15:31;;;;;;;18.03;14.07;;;1.40;99.90;;;;;;4987177;28;20248;-74
2021/12/06 00:17:56;;;;;;;16.53;13.97;;;1.50;99.90;;;;;;4980725;28;20205;-74
2021/12/06 00:20:23;;;;;;;19.73;15.37;;;1.60;99.90;;;;;;4987212;28;20194;-74
2021/12/06 00:22:49;;;;;;;18.00;14.47;;;1.60;99.90;;;;;;4983086;28;20707;-75
2021/12/06 00:25:15;;;;;;;18.10;14.80;;;1.50;99.90;;;;;;4988220;28;20256;-75
2021/12/06 00:27:41;;;;;;;16.93;14.20;;;1.40;99.90;;;;;;4981546;28;20624;-75
2021/12/06 00:30:11;;;;;;;18.37;14.20;;;1.40;99.90;;;;;;4987562;28;20182;-75
2021/12/06 00:32:38;;;;;;;18.23;13.93;;;1.30;99.90;;;;;;4984419;28;20225;-75
2021/12/06 00:35:04;;;;;;;15.27;13.17;;;1.30;99.90;;;;;;4989711;28;20257;-75
2021/12/06 00:37:34;;;;;;;18.57;13.87;;;1.30;99.90;;;;;;4987177;28;20264;-74
2021/12/06 00:40:06;;;;;;;18.77;14.37;;;1.30;99.90;;;;;;4975552;28;20561;-74
2021/12/06 00:42:33;;;;;;;17.83;14.53;;;1.20;99.90;;;;;;4992836;28;20182;-75
2021/12/06 00:45:00;;;;;;;18.37;14.13;;;1.20;99.90;;;;;;4985338;28;20660;-75
2021/12/06 00:47:26;;;;;;;14.90;13.30;;;1.20;99.90;;;;;;4991864;28;20205;-75
2021/12/06 00:49:52;;;;;;;16.67;14.13;;;1.20;99.90;;;;;;4989361;28;20657;-75
2021/12/06 00:52:19;;;;;;;17.10;13.73;;;1.20;99.90;;;;;;4995314;28;20190;-75
2021/12/06 00:54:45;;;;;;;17.03;13.90;;;1.20;99.90;;;;;;4990285;28;20185;-75
2021/12/06 00:57:13;;;;;;;18.20;14.43;;;1.20;99.90;;;;;;4977137;28;20564;-75
2021/12/06 00:59:39;;;;;;;15.40;13.70;;;1.20;99.90;;;;;;4986777;28;20544;-75
2021/12/06 01:02:07;;;;;;;16.87;13.67;;;1.20;99.90;;;;;;4996038;28;20194;-75
2021/12/06 01:04:35;;;;;;;15.70;12.33;;;1.20;99.90;;;;;;4989392;28;20193;-75
2021/12/06 01:07:02;;;;;;;17.67;13.43;;;1.20;99.90;;;;;;4970604;28;20210;-75
2021/12/06 01:09:28;;;;;;;16.37;13.70;;;1.20;99.90;;;;;;4991181;28;20560;-75
2021/12/06 01:11:53;;;;;;;16.07;13.33;;;1.20;99.90;;;;;;4989223;28;20206;-75
2021/12/06 01:14:19;;;;;;;16.23;12.37;;;1.20;99.90;;;;;;4977431;28;20182;-74
2021/12/06 01:16:46;;;;;;;18.40;13.43;;;1.30;99.90;;;;;;4991464;28;20207;-75
2021/12/06 01:19:12;;;;;;;17.00;13.23;;;1.30;99.90;;;;;;4987490;28;20184;-75
2021/12/06 01:24:12;;;;;;;17.70;13.77;;;1.40;99.90;;;;;;4988197;28;20816;-74
2021/12/06 01:39:09;;;;;;;20.03;15.10;;;1.40;99.90;;;;;;4991219;28;20685;-75
2021/12/06 01:39:34;;;;;;;19.47;14.60;;;1.40;99.90;;;;;;4987092;28;20245;-74
2021/12/06 01:42:03;;;;;;;18.20;13.40;;;1.50;99.90;;;;;;4990311;28;20186;-74
2021/12/06 01:44:32;;;;;;;17.80;13.50;;;1.50;99.90;;;;;;4989888;28;20181;-74
2021/12/06 01:47:04;;;;;;;17.57;13.57;;;1.50;99.90;;;;;;4973344;28;20245;-76
2021/12/06 01:49:34;;;;;;;17.00;13.67;;;1.50;99.90;;;;;;4970986;28;20193;-76
2021/12/06 01:52:10;;;;;;;18.57;14.83;;;1.50;99.90;;;;;;4991485;28;20627;-74
2021/12/06 01:54:36;;;;;;;22.47;14.20;;;1.50;99.90;;;;;;4990077;28;20653;-74
2021/12/06 01:57:03;;;;;;;19.47;14.33;;;1.60;99.90;;;;;;4992452;28;20631;-75
2021/12/06 01:59:29;;;;;;;19.60;14.23;;;1.60;99.90;;;;;;4995407;28;20227;-75
2021/12/06 02:01:56;;;;;;;17.77;13.13;;;1.60;99.90;;;;;;4988894;28;20186;-75
2021/12/06 02:04:22;;;;;;;19.10;13.87;;;1.60;99.90;;;;;;4987057;28;20194;-75
2021/12/06 02:06:48;;;;;;;20.20;14.20;;;1.60;99.90;;;;;;4992813;28;20297;-75
2021/12/06 02:09:16;;;;;;;20.30;13.80;;;1.70;99.90;;;;;;4992445;28;20264;-75
2021/12/06 02:11:43;;;;;;;18.13;14.23;;;1.70;99.90;;;;;;4990601;28;20174;-75
2021/12/06 02:17:24;;;;;;;20.67;13.43;;;1.70;99.90;;;;;;4954856;28;20672;-75
2021/12/06 02:19:59;;;;;;;21.57;14.00;;;1.70;99.90;;;;;;4989982;28;20688;-75
2021/12/06 02:22:28;;;;;;;21.90;13.37;;;1.70;99.90;;;;;;4980938;28;20229;-74
2021/12/06 02:24:55;;;;;;;18.53;13.37;;;1.70;99.90;;;;;;4993875;28;20745;-75
2021/12/06 02:27:24;;;;;;;20.37;14.27;;;1.70;99.90;;;;;;4993862;28;20312;-75
2021/12/06 02:29:52;;;;;;;17.90;13.70;;;1.70;99.90;;;;;;4986097;28;20312;-75
2021/12/06 02:32:18;;;;;;;19.67;12.80;;;1.60;99.90;;;;;;4984657;28;20185;-74
2021/12/06 02:34:47;;;;;;;19.03;12.47;;;1.60;99.90;;;;;;4971427;28;20190;-75
2021/12/06 02:37:15;;;;;;;21.27;13.63;;;1.60;99.90;;;;;;4993051;28;20198;-75
2021/12/06 02:39:41;;;;;;;17.60;12.97;;;1.60;99.90;;;;;;4988510;28;20177;-75
2021/12/06 02:42:12;;;;;;;19.23;14.20;;;1.60;99.90;;;;;;4991540;28;20186;-75
2021/12/06 02:44:38;;;;;;;19.53;14.13;;;1.60;99.90;;;;;;4986356;28;20185;-75
2021/12/06 02:47:04;;;;;;;19.97;13.30;;;1.60;99.90;;;;;;4973002;28;20214;-74
2021/12/06 02:49:30;;;;;;;16.97;12.27;;;1.50;99.90;;;;;;4986105;28;20190;-75
2021/12/06 02:51:56;;;;;;;18.87;12.50;;;1.60;99.90;;;;;;4987083;28;20637;-74
2021/12/06 02:54:23;;;;;;;18.50;11.93;;;1.60;99.90;;;;;;4991175;28;20186;-75
2021/12/06 02:56:56;;;;;;;18.53;13.30;;;1.60;99.90;;;;;;4965253;28;20259;-75
2021/12/06 02:59:25;;;;;;;18.83;12.70;;;1.60;99.90;;;;;;4973121;28;20182;-75
2021/12/06 03:02:00;;;;;;;19.83;13.17;;;1.60;99.90;;;;;;4988744;28;20184;-75
2021/12/06 03:04:26;;;;;;;19.50;12.77;;;1.60;99.90;;;;;;4982867;28;20632;-75
2021/12/06 03:06:54;;;;;;;20.07;12.83;;;1.50;99.90;;;;;;4985476;28;20205;-74
2021/12/06 03:09:23;;;;;;;22.53;13.70;;;1.50;99.90;;;;;;4970880;28;20192;-74
2021/12/06 03:11:56;;;;;;;18.00;12.20;;;1.60;99.90;;;;;;4988287;28;20188;-75
2021/12/06 03:14:33;;;;;;;18.03;12.30;;;1.70;99.90;;;;;;4981180;28;20272;-75
2021/12/06 03:17:01;;;;;;;19.63;12.40;;;1.80;99.90;;;;;;4986771;28;20206;-76
2021/12/06 03:19:27;;;;;;;17.70;11.70;;;1.70;99.90;;;;;;4985550;28;20190;-74
2021/12/06 03:21:53;;;;;;;20.10;13.13;;;1.70;99.90;;;;;;4988987;28;20205;-75
2021/12/06 03:24:19;;;;;;;19.13;12.93;;;1.70;99.90;;;;;;4988136;28;20193;-75
2021/12/06 03:26:46;;;;;;;16.63;12.10;;;1.80;99.90;;;;;;4987725;28;20197;-74
2021/12/06 03:29:12;;;;;;;18.60;13.87;;;1.70;99.90;;;;;;4985384;28;20201;-75
2021/12/06 03:31:38;;;;;;;21.20;13.33;;;1.70;99.90;;;;;;4989364;28;20537;-75
2021/12/06 03:34:05;;;;;;;15.17;11.17;;;1.60;99.90;;;;;;4988673;28;20186;-75
2021/12/06 03:36:34;;;;;;;18.77;11.77;;;1.70;99.90;;;;;;4988395;28;20302;-74
2021/12/06 03:39:00;;;;;;;18.77;12.30;;;1.70;99.90;;;;;;4979045;28;20198;-75
2021/12/06 03:41:28;;;;;;;18.73;11.73;;;1.70;99.90;;;;;;4990469;28;20182;-75
2021/12/06 03:43:56;;;;;;;18.77;13.03;;;1.60;99.90;;;;;;4990456;28;20321;-74
2021/12/06 03:46:24;;;;;;;20.43;12.33;;;1.60;99.90;;;;;;4991349;28;20645;-75
2021/12/06 03:48:50;;;;;;;20.37;13.57;;;1.60;99.90;;;;;;4980858;28;20248;-75
2021/12/06 03:51:16;;;;;;;18.20;13.47;;;1.50;99.90;;;;;;4987619;28;20228;-75
2021/12/06 03:53:41;;;;;;;20.10;13.63;;;1.50;99.90;;;;;;4987451;28;20186;-74
2021/12/06 03:56:07;;;;;;;18.80;13.93;;;1.40;99.90;;;;;;4974667;28;20178;-75
2021/12/06 03:58:34;;;;;;;21.73;14.60;;;1.40;99.90;;;;;;4985688;28;20202;-75
2021/12/06 04:01:02;;;;;;;17.80;13.77;;;1.40;99.90;;;;;;4989489;28;20244;-75
2021/12/06 04:03:31;;;;;;;18.73;13.73;;;1.40;99.90;;;;;;4985247;28;20573;-75
2021/12/06 04:05:57;;;;;;;19.60;12.83;;;1.40;99.90;;;;;;4992230;28;20190;-75
2021/12/06 04:08:25;;;;;;;18.60;12.97;;;1.40;99.90;;;;;;4988603;28;20217;-74
2021/12/06 04:10:50;;;;;;;18.23;13.63;;;1.40;99.90;;;;;;4992429;28;20629;-75
2021/12/06 04:13:16;;;;;;;21.07;13.27;;;1.40;99.90;;;;;;4991114;28;20186;-75
2021/12/06 04:15:44;;;;;;;22.00;13.83;;;1.50;99.90;;;;;;4994637;28;20189;-75
2021/12/06 04:18:10;;;;;;;20.47;13.90;;;1.40;99.90;;;;;;4990691;28;20209;-75
2021/12/06 04:20:37;;;;;;;20.23;13.77;;;1.50;99.90;;;;;;4968049;28;20260;-75
2021/12/06 04:23:05;;;;;;;20.13;13.13;;;1.40;99.90;;;;;;4989276;28;20194;-74
2021/12/06 04:25:32;;;;;;;19.83;12.93;;;1.50;99.90;;;;;;4989981;28;20182;-75
2021/12/06 04:28:03;;;;;;;19.87;14.30;;;1.40;99.90;;;;;;4994917;28;20218;-75
2021/12/06 04:30:30;;;;;;;22.20;14.90;;;1.50;99.90;;;;;;4991893;28;20181;-75
2021/12/06 04:32:56;;;;;;;22.03;14.40;;;1.40;99.90;;;;;;4984774;28;20198;-75
2021/12/06 04:35:23;;;;;;;18.33;13.37;;;1.40;99.90;;;;;;4996276;28;20269;-75
2021/12/06 04:37:49;;;;;;;18.30;14.20;;;1.40;99.90;;;;;;4991934;28;20308;-75
2021/12/06 04:40:15;;;;;;;25.07;14.07;;;1.40;99.90;;;;;;4989854;28;20261;-75
2021/12/06 04:42:42;;;;;;;23.93;13.60;;;1.40;99.90;;;;;;4989709;28;20298;-75
2021/12/06 04:45:09;;;;;;;26.13;15.03;;;1.50;99.90;;;;;;4991468;28;20668;-75
2021/12/06 04:47:35;;;;;;;19.40;13.13;;;1.50;99.90;;;;;;4992604;28;20692;-75
2021/12/06 04:50:01;;;;;;;22.60;15.23;;;1.50;99.90;;;;;;4987781;28;20182;-74
2021/12/06 04:52:31;;;;;;;18.67;13.37;;;1.50;99.90;;;;;;4988847;28;20174;-74
2021/12/06 04:55:00;;;;;;;21.17;13.43;;;1.50;99.90;;;;;;4987485;28;20185;-74
2021/12/06 04:57:32;;;;;;;22.60;13.00;;;1.50;99.90;;;;;;4992709;28;20218;-74
2021/12/06 05:00:05;;;;;;;20.40;13.90;;;1.50;99.90;;;;;;4995222;28;20186;-74
2021/12/06 05:02:34;;;;;;;19.17;12.87;;;1.50;99.90;;;;;;4993263;28;20201;-75
2021/12/06 05:05:12;;;;;;;21.03;14.07;;;1.40;99.90;;;;;;4991602;28;20645;-75
2021/12/06 05:07:49;;;;;;;18.17;12.90;;;1.50;99.90;;;;;;4993510;28;20723;-75
2021/12/06 05:10:16;;;;;;;19.73;13.33;;;1.60;99.90;;;;;;4993202;28;20224;-75
2021/12/06 05:12:42;;;;;;;18.77;13.03;;;1.60;99.90;;;;;;4993687;28;20561;-75
2021/12/06 05:15:09;;;;;;;18.07;12.60;;;1.60;99.90;;;;;;4991628;28;20190;-74
2021/12/06 05:17:34;;;;;;;18.50;11.87;;;1.60;99.90;;;;;;4989455;28;20214;-75
2021/12/06 05:20:02;;;;;;;17.87;12.17;;;1.70;99.90;;;;;;4988017;28;20202;-75
2021/12/06 05:22:28;;;;;;;17.57;11.30;;;1.70;99.90;;;;;;4992279;28;20720;-75
2021/12/06 05:24:54;;;;;;;16.00;11.53;;;1.70;99.90;;;;;;4993942;28;20189;-75
2021/12/06 05:27:26;;;;;;;17.80;12.23;;;1.70;99.90;;;;;;4991683;28;20213;-75
2021/12/06 05:29:57;;;;;;;19.87;11.47;;;1.70;99.90;;;;;;4993471;28;20186;-75
2021/12/06 05:32:25;;;;;;;17.43;11.73;;;1.70;99.90;;;;;;4987333;28;20186;-75
2021/12/06 05:34:57;;;;;;;18.80;11.70;;;1.60;99.90;;;;;;4986149;28;20178;-75
2021/12/06 05:37:23;;;;;;;17.40;12.77;;;1.70;99.90;;;;;;4981621;28;20209;-75
2021/12/06 05:39:49;;;;;;;18.97;12.87;;;1.60;99.90;;;;;;4963705;28;20189;-75
2021/12/06 05:42:14;;;;;;;20.30;12.37;;;1.60;99.90;;;;;;4983615;28;20272;-75
2021/12/06 05:44:41;;;;;;;16.50;10.70;;;1.60;99.90;;;;;;4983355;28;20230;-75
2021/12/06 05:47:07;;;;;;;16.77;11.60;;;1.70;99.90;;;;;;4989336;28;20213;-75
2021/12/06 05:49:33;;;;;;;17.50;11.27;;;1.70;99.90;;;;;;4983763;28;20641;-74
2021/12/06 05:51:59;;;;;;;19.53;12.13;;;1.70;99.90;;;;;;4981769;28;20700;-74
2021/12/06 05:54:25;;;;;;;17.67;11.83;;;1.80;99.90;;;;;;4984098;28;20186;-75
2021/12/06 05:56:52;;;;;;;16.87;11.97;;;1.80;99.90;;;;;;4985415;28;20206;-74
2021/12/06 05:59:18;;;;;;;17.10;11.67;;;1.80;99.90;;;;;;4982941;28;20213;-74
2021/12/06 06:01:47;;;;;;;18.37;12.07;;;1.80;99.90;;;;;;4988751;28;20193;-75
2021/12/06 06:04:13;;;;;;;16.43;11.67;;;1.80;99.90;;;;;;4989006;28;20438;-75
2021/12/06 06:06:38;;;;;;;17.07;11.40;;;1.70;99.90;;;;;;4992390;28;20198;-75
2021/12/06 06:09:06;;;;;;;17.63;11.77;;;1.60;99.90;;;;;;4970349;28;20206;-75
2021/12/06 06:11:34;;;;;;;13.77;10.23;;;1.70;99.90;;;;;;4993271;28;20493;-74
2021/12/06 06:14:00;;;;;;;16.50;12.00;;;1.70;99.90;;;;;;4993375;28;20269;-75
2021/12/06 06:16:31;;;;;;;15.33;10.57;;;1.70;99.90;;;;;;4992993;28;20667;-75
2021/12/06 06:18:57;;;;;;;15.97;11.53;;;1.60;99.90;;;;;;4993308;28;20272;-75
2021/12/06 06:21:22;;;;;;;17.47;12.23;;;1.60;99.90;;;;;;4993280;28;20284;-75
2021/12/06 06:23:48;;;;;;;17.13;11.63;;;1.60;99.90;;;;;;4993674;28;20213;-75
2021/12/06 06:26:14;;;;;;;16.70;12.43;;;1.60;99.90;;;;;;4991719;28;20198;-74
2021/12/06 06:28:39;;;;;;;15.77;11.27;;;1.60;99.90;;;;;;4993787;28;20662;-75
2021/12/06 06:31:05;;;;;;;17.03;12.67;;;1.60;99.90;;;;;;4993260;28;20186;-75
2021/12/06 06:33:31;;;;;;;18.03;11.97;;;1.60;99.90;;;;;;4992887;28;20254;-75
2021/12/06 06:35:57;;;;;;;17.80;12.00;;;1.60;99.90;;;;;;4992975;28;20193;-75
2021/12/06 06:38:23;;;;;;;15.60;11.77;;;1.60;99.90;;;;;;4992392;28;20209;-75
2021/12/06 06:40:49;;;;;;;15.00;11.20;;;1.60;99.90;;;;;;4991071;28;20193;-75
2021/12/06 06:43:16;;;;;;;16.93;11.80;;;1.60;99.90;;;;;;4993871;28;20564;-74
2021/12/06 06:45:41;;;;;;;16.70;11.27;;;1.60;99.90;;;;;;4995819;28;20182;-75
2021/12/06 06:48:07;;;;;;;20.10;13.53;;;1.60;99.90;;;;;;4991047;28;20214;-75
2021/12/06 06:50:33;;;;;;;18.13;11.40;;;1.60;99.90;;;;;;4986652;28;20181;-75
2021/12/06 06:52:59;;;;;;;17.20;12.23;;;1.60;99.90;;;;;;4989355;28;20261;-75
2021/12/06 06:55:25;;;;;;;14.37;10.30;;;1.60;99.90;;;;;;4992365;28;20178;-74
2021/12/06 06:57:52;;;;;;;15.37;11.27;;;1.60;99.90;;;;;;4992719;28;20594;-75
2021/12/06 07:00:25;;;;;;;17.20;11.80;;;1.60;99.90;;;;;;4969273;28;20212;-74
2021/12/06 07:02:50;;;;;;;17.70;11.57;;;1.60;99.90;;;;;;4991642;28;20199;-76
2021/12/06 07:05:16;;;;;;;17.10;11.60;;;1.60;99.90;;;;;;4988248;28;20198;-75
2021/12/06 07:07:42;;;;;;;15.73;11.60;;;1.60;99.90;;;;;;4989053;28;20210;-75
2021/12/06 07:10:09;;;;;;;16.47;12.17;;;1.60;99.90;;;;;;4974941;28;20232;-75
2021/12/06 07:12:43;;;;;;;13.43;10.13;;;1.60;99.90;;;;;;4983952;28;20265;-75
2021/12/06 07:15:12;;;;;;;18.30;12.37;;;1.60;99.90;;;;;;4989495;28;20190;-75
2021/12/06 07:17:39;;;;;;;13.63;9.70;;;1.60;99.90;;;;;;4985024;28;20284;-75
2021/12/06 07:20:05;;;;;;;24.73;17.63;;;1.60;99.90;;;;;;4980397;28;20252;-77
2021/12/06 07:22:31;;;;;;;18.57;11.67;;;1.60;99.90;;;;;;4971945;28;20221;-75
2021/12/06 07:24:57;;;;;;;16.03;11.07;;;1.60;99.90;;;;;;4987235;28;20222;-76
2021/12/06 07:27:22;;;;;;;16.77;12.07;;;1.70;99.90;;;;;;4973280;28;20213;-73
2021/12/06 07:29:48;;;;;;;16.97;11.43;;;1.70;99.90;;;;;;4984881;28;20242;-77
2021/12/06 07:32:14;;;;;;;15.17;10.40;;;1.70;99.90;;;;;;4973829;28;20188;-77
2021/12/06 07:34:39;;;;;;;15.57;10.20;;;1.80;99.90;;;;;;4984749;28;20700;-77
2021/12/06 07:37:05;;;;;;;16.10;11.30;;;1.80;99.90;;;;;;4989655;28;20278;-73
2021/12/06 07:39:31;;;;;;;16.53;10.63;;;1.80;99.90;;;;;;4986121;28;20187;-73
2021/12/06 07:41:57;;;;;;;15.53;11.20;;;1.80;99.90;;;;;;4979122;28;20183;-72
2021/12/06 07:44:23;;;;;;;15.83;10.97;;;1.90;99.90;;;;;;4985725;28;20236;-73
2021/12/06 07:46:51;;;;;;;14.60;10.57;;;1.90;99.90;;;;;;4983171;28;20554;-73
2021/12/06 07:49:21;;;;;;;16.07;11.00;;;2.00;99.90;;;;;;4984489;28;20210;-73
2021/12/06 07:51:47;;;;;;;14.70;11.00;;;2.00;99.90;;;;;;4992902;28;20334;-72
2021/12/06 07:54:13;;;;;;;14.40;10.87;;;2.00;99.90;;;;;;4981944;28;20240;-74
2021/12/06 07:56:40;;;;;;;13.33;9.23;;;2.00;99.90;;;;;;4984949;28;20206;-73
2021/12/06 07:59:05;;;;;;;14.53;10.00;;;2.00;99.90;;;;;;4986894;28;20240;-73
2021/12/06 08:01:31;;;;;;;14.97;10.77;;;1.90;99.90;;;;;;4991182;28;20193;-74
2021/12/06 08:03:59;;;;;;;13.00;10.20;;;1.90;99.90;;;;;;4983961;28;20226;-74
2021/12/06 08:06:25;;;;;;;11.83;7.93;;;1.90;99.90;;;;;;4986953;28;20565;-75
2021/12/06 08:08:50;;;;;;;18.43;8.40;;;1.90;99.90;;;;;;4984263;28;20216;-76
2021/12/06 08:11:17;;;;;;;13.07;9.70;;;2.00;99.90;;;;;;4989327;28;20182;-74
2021/12/06 08:13:45;;;;;;;14.80;10.40;;;2.00;99.90;;;;;;4988298;28;20189;-75
2021/12/06 08:16:20;;;;;;;11.83;9.40;;;2.00;99.90;;;;;;4988205;28;20208;-74
2021/12/06 08:18:47;;;;;;;13.57;9.60;;;2.20;99.90;;;;;;4987289;28;20268;-74
2021/12/06 08:21:14;;;;;;;12.03;8.43;;;2.30;99.90;;;;;;4981911;28;20193;-75
2021/12/06 08:23:41;;;;;;;11.07;8.40;;;2.30;99.90;;;;;;4968608;28;20189;-77
2021/12/06 08:26:08;;;;;;;11.10;8.03;;;2.40;99.90;;;;;;4983226;28;20182;-77
2021/12/06 08:28:35;;;;;;;11.40;8.70;;;2.40;99.90;;;;;;4986550;28;20220;-77
2021/12/06 08:31:02;;;;;;;10.70;8.50;;;2.20;99.90;;;;;;4989701;28;20186;-77
2021/12/06 08:33:29;;;;;;;9.70;8.03;;;2.20;99.90;;;;;;4987227;28;20580;-76
2021/12/06 08:35:56;;;;;;;16.67;12.10;;;2.40;99.90;;;;;;4983255;28;20186;-76
2021/12/06 08:38:25;;;;;;;11.17;8.50;;;2.50;99.90;;;;;;4993128;28;20205;-74
2021/12/06 08:40:53;;;;;;;10.00;7.90;;;2.80;99.90;;;;;;4989426;28;20190;-75
2021/12/06 08:43:20;;;;;;;10.30;8.03;;;3.00;99.90;;;;;;4985124;28;20194;-76
2021/12/06 08:45:58;;;;;;;10.60;7.67;;;3.30;99.90;;;;;;4985365;28;20256;-74
2021/12/06 08:48:26;;;;;;;9.83;8.57;;;3.40;99.90;;;;;;4988687;28;20512;-75
2021/12/06 08:50:54;;;;;;;10.07;7.97;;;3.30;99.90;;;;;;4976790;28;20195;-76
2021/12/06 08:53:21;;;;;;;9.80;8.43;;;3.20;99.90;;;;;;4992815;28;20188;-75
2021/12/06 08:55:47;;;;;;;10.23;7.53;;;3.30;99.90;;;;;;4994258;28;20194;-73
2021/12/06 08:58:13;;;;;;;8.90;7.40;;;3.50;99.90;;;;;;4984475;28;20570;-74
2021/12/06 09:00:39;;;;;;;10.37;7.80;;;4.00;99.90;;;;;;4984045;28;20191;-74
2021/12/06 09:03:05;;;;;;;8.03;7.23;;;4.70;99.90;;;;;;4992047;28;20216;-75
2021/12/06 09:05:43;;;;;;;9.03;7.83;;;5.20;99.90;;;;;;4984421;28;20213;-75
2021/12/06 09:08:09;;;;;;;8.77;7.88;;;5.30;99.90;;;;;;4990752;28;20292;-74
2021/12/06 09:10:36;;;;;;;9.90;7.27;;;5.60;99.90;;;;;;4992084;28;20189;-77
2021/12/06 09:13:04;;;;;;;8.73;7.65;;;5.90;99.90;;;;;;4991217;28;20273;-77
2021/12/06 09:15:30;;;;;;;8.18;7.35;;;6.20;99.90;;;;;;4993086;28;20186;-78
2021/12/06 09:17:56;;;;;;;8.90;6.97;;;6.60;99.90;;;;;;4994365;28;20293;-77
2021/12/06 09:20:33;;;;;;;7.85;7.03;;;7.50;99.90;;;;;;4977003;28;20660;-81
2021/12/06 09:23:00;;;;;;;9.13;7.57;;;7.70;99.90;;;;;;4991025;28;20212;-79
2021/12/06 09:25:26;;;;;;;7.10;6.43;;;8.00;99.90;;;;;;5002491;28;20198;-79
2021/12/06 09:27:53;;;;;;;7.72;7.00;;;8.30;99.90;;;;;;4994385;28;20209;-75
2021/12/06 09:30:24;;;;;;;8.55;6.75;;;8.90;99.90;;;;;;4988872;28;20324;-75
2021/12/06 09:32:50;;;;;;;8.38;6.97;;;10.70;99.90;;;;;;4991656;28;20197;-77
2021/12/06 09:35:21;;;;;;;8.40;7.30;;;12.70;99.90;;;;;;4988190;28;20554;-78
2021/12/06 09:37:47;;;;;;;8.90;7.13;;;13.70;99.90;;;;;;4989054;28;20205;-78
2021/12/06 09:40:15;;;;;;;6.97;6.35;;;14.80;99.90;;;;;;4986596;28;20193;-81
2021/12/06 09:42:43;;;;;;;7.60;6.80;;;15.70;98.80;;;;;;4990830;28;20273;-79
2021/12/06 09:45:14;;;;;;;6.63;5.82;;;15.60;97.00;;;;;;4993458;28;20264;-79
2021/12/06 09:47:45;;;;;;;6.97;5.75;;;16.40;91.10;;;;;;4998392;28;20218;-79
2021/12/06 09:50:11;;;;;;;7.55;6.78;;;17.40;83.90;;;;;;5003232;28;20676;-79
2021/12/06 09:52:37;;;;;;;6.50;5.90;;;17.60;77.20;;;;;;5001245;28;20183;-79
2021/12/06 09:55:04;;;;;;;6.57;5.95;;;18.10;74.30;;;;;;5001931;28;20614;-79
2021/12/06 09:57:30;;;;;;;6.05;5.47;;;18.20;70.30;;;;;;5005133;28;20282;-78
2021/12/06 09:59:55;;;;;;;5.93;5.43;;;17.60;71.60;;;;;;4988762;28;20198;-78
2021/12/06 10:02:22;;;;;;;5.68;5.18;;;17.50;70.00;;;;;;4991501;28;20222;-79
2021/12/06 10:04:53;;;;;;;5.32;4.93;;;16.80;71.40;;;;;;5000775;28;20189;-79
2021/12/06 10:07:20;;;;;;;6.93;5.20;;;16.80;73.00;;;;;;4998211;28;20213;-79
2021/12/06 10:09:47;;;;;;;5.82;5.22;;;16.20;72.40;;;;;;5000320;28;20182;-78
2021/12/06 10:12:16;;;;;;;5.10;4.70;;;16.30;73.60;;;;;;4996462;28;20706;-81
2021/12/06 10:14:43;;;;;;;5.90;5.15;;;16.90;71.60;;;;;;4979624;28;20194;-81
2021/12/06 10:17:09;;;;;;;5.57;4.70;;;17.00;70.20;;;;;;4993521;28;20216;-77
2021/12/06 10:19:35;;;;;;;5.35;4.88;;;17.00;69.80;;;;;;4991576;28;20196;-77
2021/12/06 10:22:01;;;;;;;5.03;4.63;;;18.10;67.80;;;;;;4988112;28;20190;-77
2021/12/06 10:24:29;;;;;;;5.45;4.57;;;18.20;66.70;;;;;;4988873;28;20246;-79
2021/12/06 10:27:05;;;;;;;5.50;4.75;;;18.20;66.10;;;;;;4994360;28;20202;-77
2021/12/06 10:29:47;;;;;;;4.93;4.43;;;18.60;63.90;;;;;;4992750;28;20311;-76
2021/12/06 10:32:34;;;;;;;4.97;4.57;;;18.30;63.80;;;;;;4985906;28;20235;-76
2021/12/06 10:35:12;;;;;;;5.50;5.05;;;17.50;63.80;;;;;;4986873;28;20183;-76
2021/12/06 10:37:46;;;;;;;7.30;4.65;;;17.10;66.70;;;;;;4995680;28;20256;-77
2021/12/06 10:40:25;;;;;;;5.30;4.80;;;16.50;69.20;;;;;;4988544;28;20783;-76
2021/12/06 10:42:52;;;;;;;5.30;4.85;;;17.20;67.00;;;;;;4986975;28;20186;-77
2021/12/06 10:45:32;;;;;;;5.28;4.80;;;16.80;66.60;;;;;;4992554;28;20269;-76
2021/12/06 10:48:09;;;;;;;5.60;5.00;;;16.40;68.30;;;;;;4988255;28;20624;-76
2021/12/06 10:50:42;;;;;;;5.10;4.70;;;17.90;65.80;;;;;;4994978;28;20213;-79
2021/12/06 10:53:08;;;;;;;6.38;5.40;;;18.50;62.80;;;;;;4990763;28;20186;-77
2021/12/06 10:55:35;;;;;;;6.07;5.45;;;16.80;65.00;;;;;;4988703;28;20552;-77
2021/12/06 10:58:05;;;;;;;5.32;4.82;;;16.30;68.20;;;;;;4992198;28;20213;-77
2021/12/06 11:00:39;;;;;;;6.53;5.28;;;15.90;69.40;;;;;;4983303;28;20197;-77
2021/12/06 11:03:20;;;;;;;5.25;4.78;;;16.80;69.40;;;;;;4991144;28;20212;-80
2021/12/06 11:06:13;;;;;;;5.13;4.57;;;17.80;65.30;;;;;;5005101;28;20634;-82
2021/12/06 11:09:04;;;;;;;4.97;4.57;;;19.50;62.60;;;;;;5000847;28;20209;-80
2021/12/06 11:11:34;;;;;;;4.43;4.05;;;20.60;59.80;;;;;;4994071;28;20183;-81
2021/12/06 11:14:10;;;;;;;4.60;4.20;;;21.10;57.20;;;;;;5001501;28;20248;-81
2021/12/06 11:16:43;;;;;;;4.72;4.32;;;21.60;56.80;;;;;;5002161;28;20205;-81
2021/12/06 11:19:15;;;;;;;5.18;4.78;;;21.60;55.30;;;;;;4983453;28;20268;-81
2021/12/06 11:21:42;;;;;;;4.80;4.40;;;20.10;57.10;;;;;;4998247;28;20202;-79
2021/12/06 11:24:17;;;;;;;5.15;4.35;;;18.00;59.00;;;;;;5001441;28;20233;-81
2021/12/06 11:26:48;;;;;;;4.78;4.38;;;16.80;62.60;;;;;;4985502;28;20245;-81
2021/12/06 11:29:35;;;;;;;4.80;4.40;;;16.30;64.90;;;;;;4990428;28;20236;-80
2021/12/06 11:32:12;;;;;;;5.95;4.20;;;16.10;65.40;;;;;;5005990;28;20196;-80
2021/12/06 11:35:19;;;;;;;5.07;4.53;;;16.40;66.80;;;;;;5003050;28;20192;-80
2021/12/06 11:37:48;;;;;;;4.68;4.28;;;17.90;63.20;;;;;;4981657;28;20214;-80
2021/12/06 11:40:15;;;;;;;3.88;3.58;;;18.50;62.30;;;;;;4994745;28;20208;-81
2021/12/06 11:43:03;;;;;;;4.53;4.05;;;19.40;60.50;;;;;;5004426;28;20199;-81
2021/12/06 11:45:36;;;;;;;5.10;4.13;;;21.40;57.40;;;;;;5007757;28;20192;-81
2021/12/06 11:48:16;;;;;;;4.22;3.88;;;20.60;57.00;;;;;;5003565;28;20206;-80
2021/12/06 11:50:49;;;;;;;4.05;3.65;;;20.70;58.30;;;;;;4993046;28;20182;-76
2021/12/06 11:53:18;;;;;;;4.35;4.05;;;21.50;56.20;;;;;;4992472;28;20272;-77
2021/12/06 11:55:48;;;;;;;4.45;4.00;;;22.20;53.60;;;;;;4986407;28;20181;-77
2021/12/06 11:58:26;;;;;;;4.78;4.25;;;20.70;55.50;;;;;;4984938;28;20236;-80
2021/12/06 12:01:12;;;;;;;4.15;3.60;;;20.80;56.20;;;;;;4990355;28;20210;-78
2021/12/06 12:03:41;;;;;;;3.85;3.55;;;19.60;56.50;;;;;;4989340;28;20193;-77
2021/12/06 12:06:22;;;;;;;4.72;4.32;;;18.50;58.60;;;;;;4986427;28;20201;-78
2021/12/06 12:08:48;;;;;;;5.45;4.28;;;16.20;61.70;;;;;;4964554;28;20292;-78
2021/12/06 12:11:14;;;;;;;4.78;4.30;;;14.40;66.80;;;;;;4987186;28;20181;-79
2021/12/06 12:13:42;;;;;;;7.63;4.78;;;14.30;69.00;;;;;;4983871;28;20189;-77
2021/12/06 12:16:12;;;;;;;6.03;4.45;;;14.20;69.70;;;;;;4982424;28;20232;-77
2021/12/06 12:18:40;;;;;;;7.25;4.38;;;13.40;70.80;;;;;;4976083;28;20637;-78
2021/12/06 12:21:08;;;;;;;4.53;4.18;;;11.90;76.10;;;;;;4985932;28;20201;-78
2021/12/06 12:23:34;;;;;;;4.75;4.35;;;10.80;78.80;;;;;;4991277;28;20293;-77
2021/12/06 12:26:10;;;;;;;5.82;4.65;;;9.90;84.30;;;;;;4990048;28;20286;-78
2021/12/06 12:29:01;;;;;;;8.10;7.30;;;9.70;88.90;;;;;;4982358;28;20210;-78
2021/12/06 12:31:26;;;;;;;7.90;6.78;;;9.90;90.40;;;;;;4991809;28;20198;-79
2021/12/06 12:33:55;;;;;;;8.75;7.53;;;9.30;92.80;;;;;;4991829;28;20557;-80
2021/12/06 12:36:22;;;;;;;8.15;7.32;;;8.50;95.00;;;;;;4991867;28;20186;-79
2021/12/06 12:38:49;;;;;;;5.97;5.35;;;8.30;97.90;;;;;;4992242;28;20599;-78
2021/12/06 12:41:18;;;;;;;5.90;5.40;;;7.90;98.60;;;;;;4974265;28;20649;-77
2021/12/06 12:43:51;;;;;;;5.85;5.25;;;7.70;99.90;;;;;;4989537;28;20276;-78
2021/12/06 12:46:22;;;;;;;6.50;5.60;;;7.70;99.90;;;;;;4977163;28;20186;-77
2021/12/06 12:48:53;;;;;;;7.70;5.50;;;7.20;99.90;;;;;;4971765;28;20226;-78
2021/12/06 12:51:33;;;;;;;7.03;5.82;;;6.70;99.90;;;;;;4995159;28;20200;-78
2021/12/06 12:54:09;;;;;;;10.98;7.80;;;6.30;99.90;;;;;;4990790;28;20255;-78
2021/12/06 12:56:44;;;;;;;8.93;7.60;;;6.10;99.90;;;;;;4992599;28;20198;-78
2021/12/06 12:59:31;;;;;;;8.85;7.75;;;6.00;99.90;;;;;;4986743;28;20186;-78
2021/12/06 13:02:16;;;;;;;8.93;8.02;;;6.10;99.90;;;;;;4988092;28;20186;-78
2021/12/06 13:05:00;;;;;;;10.77;8.85;;;5.80;99.90;;;;;;4985988;28;20280;-79